createdAt,value
2023-03-24T00:02:06.659Z,8.13
2023-03-24T00:04:23.774Z,7.45
2023-03-24T00:06:40.867Z,8.23
2023-03-24T00:08:58.004Z,7.28
2023-03-24T00:11:14.936Z,8.00
2023-03-24T00:13:31.958Z,9.77
2023-03-24T00:15:48.990Z,7.32
2023-03-24T00:18:06.280Z,6.93
2023-03-24T00:20:23.639Z,10.13
2023-03-24T00:22:40.623Z,8.13
2023-03-24T00:24:57.518Z,9.30
2023-03-24T00:27:15.853Z,6.85
2023-03-24T00:29:32.828Z,8.32
2023-03-24T00:31:49.767Z,7.85
2023-03-24T00:34:06.708Z,6.28
2023-03-24T00:36:23.749Z,8.68
2023-03-24T00:38:40.759Z,5.55
2023-03-24T00:40:58.115Z,5.78
2023-03-24T00:43:15.134Z,7.35
2023-03-24T00:45:32.259Z,6.03
2023-03-24T00:47:49.222Z,7.78
2023-03-24T00:50:07.239Z,6.78
2023-03-24T00:52:24.311Z,5.75
2023-03-24T00:54:41.336Z,7.13
2023-03-24T00:56:58.348Z,6.20
2023-03-24T00:59:15.401Z,9.27
2023-03-24T01:01:32.429Z,9.95
2023-03-24T01:03:49.376Z,8.23
2023-03-24T01:06:06.303Z,9.68
2023-03-24T01:08:23.298Z,7.25
2023-03-24T01:10:40.348Z,6.88
2023-03-24T01:12:57.799Z,12.70
2023-03-24T01:15:14.760Z,7.95
2023-03-24T01:17:31.900Z,8.95
2023-03-24T01:19:49.213Z,9.73
2023-03-24T01:22:06.211Z,10.48
2023-03-24T01:24:23.540Z,10.40
2023-03-24T01:26:40.822Z,8.45
2023-03-24T01:28:57.882Z,7.63
2023-03-24T01:31:14.992Z,8.10
2023-03-24T01:33:32.120Z,11.43
2023-03-24T01:35:49.377Z,10.02
2023-03-24T01:38:07.278Z,8.35
2023-03-24T01:40:24.563Z,8.60
2023-03-24T01:42:41.940Z,9.27
2023-03-24T01:44:59.024Z,8.75
2023-03-24T01:47:16.056Z,8.80
2023-03-24T01:49:33.002Z,7.13
2023-03-24T01:51:49.916Z,8.38
2023-03-24T01:54:06.812Z,8.98
2023-03-24T01:56:23.895Z,9.43
2023-03-24T01:58:41.142Z,8.77
2023-03-24T02:00:58.117Z,8.35
2023-03-24T02:03:15.193Z,9.07
2023-03-24T02:05:32.216Z,11.13
2023-03-24T02:07:49.549Z,7.35
2023-03-24T02:10:06.593Z,8.48
2023-03-24T02:12:23.590Z,9.43
2023-03-24T02:14:41.554Z,8.80
2023-03-24T02:16:58.516Z,6.88
2023-03-24T02:19:15.458Z,8.07
2023-03-24T02:21:32.374Z,9.05
2023-03-24T02:23:50.586Z,8.95
2023-03-24T02:26:07.832Z,8.88
2023-03-24T02:28:24.729Z,9.80
2023-03-24T02:30:42.683Z,9.55
2023-03-24T02:32:59.839Z,8.52
2023-03-24T02:35:16.785Z,10.65
2023-03-24T02:37:34.049Z,6.93
2023-03-24T02:39:51.269Z,10.40
2023-03-24T02:42:08.172Z,7.95
2023-03-24T02:44:25.472Z,11.73
2023-03-24T02:46:42.714Z,10.20
2023-03-24T02:48:59.684Z,8.77
2023-03-24T02:51:17.681Z,7.82
2023-03-24T02:53:34.968Z,9.57
2023-03-24T02:55:51.844Z,11.85
2023-03-24T02:58:08.740Z,11.27
2023-03-24T03:00:25.692Z,12.13
2023-03-24T03:02:43.812Z,9.55
2023-03-24T03:05:00.896Z,12.95
2023-03-24T03:07:17.806Z,12.27
2023-03-24T03:09:35.004Z,9.68
2023-03-24T03:11:52.087Z,14.43
2023-03-24T03:14:09.013Z,13.13
2023-03-24T03:16:26.273Z,15.85
2023-03-24T03:18:43.277Z,15.25
2023-03-24T03:21:00.341Z,15.32
2023-03-24T03:23:17.648Z,13.85
2023-03-24T03:25:35.699Z,14.52
2023-03-24T03:27:52.739Z,17.67
2023-03-24T03:30:09.658Z,15.95
2023-03-24T03:32:26.858Z,18.80
2023-03-24T03:34:43.792Z,18.25
2023-03-24T03:37:00.719Z,17.75
2023-03-24T03:39:17.625Z,17.52
2023-03-24T03:41:34.690Z,18.17
2023-03-24T03:43:51.586Z,16.08
2023-03-24T03:46:08.698Z,18.02
2023-03-24T03:48:25.891Z,14.93
2023-03-24T03:50:43.160Z,19.10
2023-03-24T03:53:00.432Z,17.02
2023-03-24T03:55:17.439Z,14.15
2023-03-24T03:57:34.391Z,13.35
2023-03-24T03:59:51.709Z,13.57
2023-03-24T04:02:08.712Z,14.07
2023-03-24T04:04:25.759Z,11.38
2023-03-24T04:06:42.812Z,13.77
2023-03-24T04:08:59.858Z,12.88
2023-03-24T04:11:17.123Z,11.98
2023-03-24T04:13:34.404Z,15.18
2023-03-24T04:15:51.548Z,10.70
2023-03-24T04:18:08.448Z,10.07
2023-03-24T04:20:25.356Z,8.50
2023-03-24T04:22:42.336Z,7.85
2023-03-24T04:24:59.271Z,8.07
2023-03-24T04:27:16.555Z,8.52
2023-03-24T04:29:33.455Z,6.63
2023-03-24T04:31:50.398Z,5.82
2023-03-24T04:34:08.338Z,6.57
2023-03-24T04:36:26.632Z,6.15
2023-03-24T04:38:43.714Z,7.28
2023-03-24T04:41:00.784Z,6.40
2023-03-24T04:43:19.064Z,5.28
2023-03-24T04:45:36.409Z,4.85
2023-03-24T04:47:53.551Z,5.70
2023-03-24T04:50:10.557Z,6.05
2023-03-24T04:52:27.490Z,4.07
2023-03-24T04:54:44.468Z,5.10
2023-03-24T04:57:01.509Z,4.40
2023-03-24T04:59:18.423Z,3.22
2023-03-24T05:01:35.349Z,3.00
2023-03-24T05:03:53.340Z,3.13
2023-03-24T05:06:10.700Z,3.10
2023-03-24T05:08:28.635Z,3.13
2023-03-24T05:10:45.726Z,3.05
2023-03-24T05:13:02.951Z,2.00
2023-03-24T05:15:20.153Z,2.50
2023-03-24T05:17:37.150Z,2.08
2023-03-24T05:19:54.060Z,2.63
2023-03-24T05:22:11.277Z,2.53
2023-03-24T05:24:28.186Z,2.08
2023-03-24T05:26:45.219Z,2.67
2023-03-24T05:29:02.555Z,2.13
2023-03-24T05:31:19.523Z,2.60
2023-03-24T05:33:36.541Z,3.03
2023-03-24T05:35:53.672Z,1.58
2023-03-24T05:38:10.739Z,2.33
2023-03-24T05:40:28.940Z,1.92
2023-03-24T05:42:45.858Z,1.88
2023-03-24T05:45:02.768Z,1.65
2023-03-24T05:47:19.728Z,2.67
2023-03-24T05:49:36.629Z,2.88
2023-03-24T05:51:54.553Z,2.38
2023-03-24T05:54:11.443Z,1.48
2023-03-24T05:56:28.397Z,1.30
2023-03-24T05:58:45.423Z,1.48
2023-03-24T06:01:02.523Z,2.88
2023-03-24T06:03:19.861Z,2.13
2023-03-24T06:05:36.906Z,1.55
2023-03-24T06:07:53.943Z,1.80
2023-03-24T06:10:10.978Z,1.45
2023-03-24T06:12:27.961Z,3.28
2023-03-24T06:14:45.021Z,1.98
2023-03-24T06:17:02.281Z,1.70
2023-03-24T06:19:19.193Z,1.45
2023-03-24T06:21:36.414Z,2.30
2023-03-24T06:23:53.431Z,1.90
2023-03-24T06:26:10.315Z,1.90
2023-03-24T06:28:28.221Z,1.60
2023-03-24T06:30:45.231Z,2.15
2023-03-24T06:33:02.325Z,3.22
2023-03-24T06:35:19.608Z,5.18
2023-03-24T06:37:36.861Z,36.05
2023-03-24T06:39:54.060Z,22.65
2023-03-24T06:42:11.132Z,10.57
2023-03-24T06:44:29.342Z,15.23
2023-03-24T06:46:46.415Z,9.77
2023-03-24T06:49:03.700Z,7.20
2023-03-24T06:51:20.990Z,7.53
2023-03-24T06:53:38.250Z,5.03
2023-03-24T06:55:55.319Z,5.40
2023-03-24T06:58:13.314Z,3.13
2023-03-24T07:00:30.703Z,3.22
2023-03-24T07:02:48.881Z,3.38
2023-03-24T07:05:06.157Z,3.97
2023-03-24T07:09:44.010Z,4.80
2023-03-24T07:12:01.218Z,1.67
2023-03-24T07:14:18.112Z,3.28
2023-03-24T07:16:35.131Z,2.47
2023-03-24T07:18:52.449Z,1.30
2023-03-24T07:21:09.433Z,1.48
2023-03-24T07:23:26.487Z,2.65
2023-03-24T07:25:43.721Z,3.20
2023-03-24T07:28:00.657Z,2.33
2023-03-24T07:30:20.531Z,3.13
2023-03-24T07:32:41.597Z,2.20
2023-03-24T07:34:58.576Z,2.42
2023-03-24T07:37:15.848Z,2.20
2023-03-24T07:39:34.089Z,2.92
2023-03-24T07:41:51.096Z,3.85
2023-03-24T07:44:08.154Z,5.97
2023-03-24T07:46:25.072Z,5.25
2023-03-24T07:48:42.013Z,2.20
2023-03-24T07:50:59.258Z,3.42
2023-03-24T07:53:16.256Z,5.28
2023-03-24T07:55:33.535Z,7.25
2023-03-24T07:57:50.544Z,5.72
2023-03-24T08:00:07.585Z,5.97
2023-03-24T08:02:24.655Z,6.00
2023-03-24T08:04:41.790Z,7.10
2023-03-24T08:06:58.815Z,12.48
2023-03-24T08:09:16.051Z,4.32
2023-03-24T08:11:32.997Z,4.57
2023-03-24T08:13:49.872Z,0.80
2023-03-24T08:16:07.153Z,1.90
2023-03-24T08:18:24.445Z,0.73
2023-03-24T08:20:41.519Z,0.77
2023-03-24T08:22:58.415Z,2.80
2023-03-24T08:25:15.372Z,2.05
2023-03-24T08:27:32.274Z,5.53
2023-03-24T08:29:49.453Z,6.57
2023-03-24T08:32:06.795Z,2.85
2023-03-24T08:34:24.003Z,0.85
2023-03-24T08:36:41.037Z,1.40
2023-03-24T08:38:58.090Z,0.63
2023-03-24T08:41:15.010Z,2.05
2023-03-24T08:43:32.916Z,1.67
2023-03-24T08:45:49.965Z,1.85
2023-03-24T08:48:07.333Z,2.00
2023-03-24T08:50:24.540Z,2.88
2023-03-24T08:52:41.445Z,1.45
2023-03-24T08:54:58.379Z,1.83
2023-03-24T08:57:16.547Z,1.17
2023-03-24T08:59:33.599Z,1.33
2023-03-24T09:01:50.673Z,1.13
2023-03-24T09:04:07.761Z,1.38
2023-03-24T09:06:24.683Z,3.72
2023-03-24T09:08:41.641Z,5.93
2023-03-24T09:10:58.659Z,4.15
2023-03-24T09:13:15.671Z,1.98
2023-03-24T09:15:33.093Z,2.50
2023-03-24T09:17:50.109Z,2.90
2023-03-24T09:20:07.379Z,4.15
2023-03-24T09:22:43.925Z,1.90
2023-03-24T09:25:21.693Z,1.80
2023-03-24T09:27:59.064Z,5.18
2023-03-24T09:30:36.311Z,5.82
2023-03-24T09:33:13.848Z,3.42
2023-03-24T09:35:51.071Z,3.72
2023-03-24T09:38:28.352Z,3.92
2023-03-24T09:41:05.625Z,4.97
2023-03-24T09:43:42.801Z,3.85
2023-03-24T09:46:20.038Z,5.75
2023-03-24T09:48:57.304Z,4.18
2023-03-24T09:51:34.625Z,5.00
2023-03-24T09:54:12.177Z,5.57
2023-03-24T09:56:51.520Z,5.68
2023-03-24T09:59:29.557Z,6.15
2023-03-24T10:02:06.720Z,6.18
2023-03-24T10:04:43.889Z,5.65
2023-03-24T10:07:21.111Z,11.10
2023-03-24T10:09:58.369Z,6.70
2023-03-24T10:12:35.897Z,5.05
2023-03-24T10:15:13.073Z,8.90
2023-03-24T10:17:50.649Z,5.95
2023-03-24T10:20:27.983Z,5.38
2023-03-24T10:23:05.192Z,8.20
2023-03-24T10:25:42.743Z,7.28
2023-03-24T10:28:20.010Z,6.38
2023-03-24T10:30:57.419Z,7.15
2023-03-24T10:33:34.626Z,4.78
2023-03-24T10:36:12.265Z,8.65
2023-03-24T10:38:49.488Z,18.88
2023-03-24T10:41:27.060Z,7.00
2023-03-24T10:44:04.415Z,4.80
2023-03-24T10:46:41.725Z,5.85
2023-03-24T10:49:19.285Z,8.38
2023-03-24T10:51:56.550Z,21.05
2023-03-24T10:54:33.923Z,6.90
2023-03-24T10:57:11.194Z,8.20
2023-03-24T10:59:48.397Z,6.88
2023-03-24T11:02:25.919Z,6.20
2023-03-24T11:05:03.633Z,11.77
2023-03-24T11:07:41.276Z,4.55
2023-03-24T11:10:15.233Z,4.57
2023-03-24T11:12:32.474Z,7.18
2023-03-24T11:14:49.376Z,6.07
2023-03-24T11:17:06.395Z,6.28
2023-03-24T11:19:23.653Z,6.22
2023-03-24T11:21:40.971Z,6.30
2023-03-24T11:23:57.954Z,6.90
2023-03-24T11:26:15.267Z,4.00
2023-03-24T11:28:32.298Z,3.53
2023-03-24T11:30:49.624Z,4.10
2023-03-24T11:33:06.706Z,2.95
2023-03-24T11:35:29.524Z,4.10
2023-03-24T11:37:56.194Z,4.45
2023-03-24T11:40:13.522Z,4.60
2023-03-24T11:42:30.594Z,3.50
2023-03-24T11:44:47.465Z,5.43
2023-03-24T11:47:04.392Z,3.88
2023-03-24T11:49:21.550Z,4.93
2023-03-24T11:51:38.570Z,4.15
2023-03-24T11:53:55.656Z,6.70
2023-03-24T11:56:12.597Z,4.97
2023-03-24T11:58:29.638Z,5.75
2023-03-24T12:00:46.717Z,4.07
2023-03-24T12:03:03.933Z,3.78
2023-03-24T12:05:21.269Z,6.85
2023-03-24T12:07:38.345Z,4.75
2023-03-24T12:09:55.378Z,3.67
2023-03-24T12:12:12.635Z,3.40
2023-03-24T12:14:30.612Z,5.63
2023-03-24T12:16:47.797Z,4.57
2023-03-24T12:19:04.947Z,3.13
2023-03-24T12:21:21.931Z,4.00
2023-03-24T12:23:39.211Z,4.22
2023-03-24T12:25:56.344Z,4.63
2023-03-24T12:28:13.504Z,4.10
2023-03-24T12:30:30.858Z,4.28
2023-03-24T12:32:47.828Z,3.35
2023-03-24T12:35:05.196Z,5.03
2023-03-24T12:37:22.209Z,5.38
2023-03-24T12:39:39.192Z,4.50
2023-03-24T12:41:56.292Z,4.80
2023-03-24T12:44:14.355Z,3.72
2023-03-24T12:46:40.724Z,4.75
2023-03-24T12:49:04.600Z,3.78
2023-03-24T12:51:21.940Z,3.63
2023-03-24T12:53:38.913Z,2.97
2023-03-24T12:55:55.960Z,3.50
2023-03-24T12:58:14.231Z,5.00
2023-03-24T13:00:31.293Z,4.70
2023-03-24T13:02:48.706Z,3.92
2023-03-24T13:05:05.816Z,5.05
2023-03-24T13:07:22.740Z,4.22
2023-03-24T13:09:40.102Z,5.55
2023-03-24T13:11:57.054Z,5.40
2023-03-24T13:14:14.006Z,4.72
2023-03-24T13:16:31.362Z,3.55
2023-03-24T13:18:48.664Z,3.53
2023-03-24T13:21:05.664Z,3.83
2023-03-24T13:23:22.583Z,7.82
2023-03-24T13:25:39.878Z,5.32
2023-03-24T13:27:56.887Z,6.47
2023-03-24T13:30:13.901Z,4.00
2023-03-24T13:32:30.945Z,7.13
2023-03-24T13:34:47.879Z,4.20
2023-03-24T13:37:04.981Z,4.20
2023-03-24T13:39:22.118Z,3.38
2023-03-24T13:41:39.361Z,4.30
2023-03-24T13:43:56.296Z,2.42
2023-03-24T13:46:13.217Z,5.00
2023-03-24T13:48:30.290Z,5.75
2023-03-24T13:50:47.353Z,2.60
2023-03-24T13:53:04.691Z,3.75
2023-03-24T13:55:21.666Z,3.13
2023-03-24T13:57:38.809Z,3.83
2023-03-24T13:59:55.704Z,4.10
2023-03-24T14:02:12.781Z,3.10
2023-03-24T14:04:30.126Z,3.10
2023-03-24T14:06:47.236Z,5.07
2023-03-24T14:09:04.146Z,4.13
2023-03-24T14:11:21.106Z,3.38
2023-03-24T14:13:38.144Z,3.78
2023-03-24T14:15:55.353Z,4.18
2023-03-24T14:18:12.339Z,3.38
2023-03-24T14:20:29.273Z,4.85
2023-03-24T14:22:46.193Z,3.38
2023-03-24T14:25:03.216Z,4.93
2023-03-24T14:27:20.336Z,3.15
2023-03-24T14:29:38.670Z,3.78
2023-03-24T14:31:56.758Z,4.95
2023-03-24T14:34:14.318Z,5.60
2023-03-24T14:36:31.234Z,4.60
2023-03-24T14:38:48.269Z,7.22
2023-03-24T14:41:05.317Z,5.80
2023-03-24T14:43:22.309Z,6.60
2023-03-24T14:45:39.272Z,6.05
2023-03-24T14:47:56.390Z,5.90
2023-03-24T14:50:13.336Z,3.38
2023-03-24T14:52:30.324Z,4.03
2023-03-24T14:54:47.365Z,4.57
2023-03-24T14:57:04.552Z,5.03
2023-03-24T14:59:22.162Z,5.57
2023-03-24T15:01:39.308Z,5.82
2023-03-24T15:03:56.650Z,5.28
2023-03-24T15:06:13.644Z,6.53
2023-03-24T15:08:30.758Z,6.45
2023-03-24T15:10:48.400Z,5.28
2023-03-24T15:13:05.648Z,3.95
2023-03-24T15:15:22.621Z,5.68
2023-03-24T15:17:39.695Z,4.47
2023-03-24T15:19:56.694Z,5.95
2023-03-24T15:22:13.864Z,6.38
2023-03-24T15:24:30.905Z,5.55
2023-03-24T15:26:47.979Z,4.43
2023-03-24T15:29:04.913Z,5.30
2023-03-24T15:31:22.248Z,5.32
2023-03-24T15:33:39.161Z,4.05
2023-03-24T15:35:56.273Z,4.72
2023-03-24T15:38:13.597Z,7.80
2023-03-24T15:40:30.646Z,4.88
2023-03-24T15:42:48.046Z,5.78
2023-03-24T15:45:04.951Z,6.40
2023-03-24T15:47:21.988Z,5.50
2023-03-24T15:49:38.935Z,4.68
2023-03-24T15:51:55.908Z,7.45
2023-03-24T15:54:12.772Z,5.32
2023-03-24T15:56:30.048Z,5.13
2023-03-24T15:58:47.358Z,3.75
2023-03-24T16:01:04.669Z,6.53
2023-03-24T16:03:21.893Z,4.85
2023-03-24T16:05:39.254Z,5.20
2023-03-24T16:07:56.541Z,4.85
2023-03-24T16:10:13.477Z,3.80
2023-03-24T16:12:30.502Z,6.57
2023-03-24T16:14:48.409Z,4.28
2023-03-24T16:17:06.730Z,7.43
2023-03-24T16:19:24.050Z,3.72
2023-03-24T16:21:41.041Z,5.40
2023-03-24T16:23:58.258Z,4.07
2023-03-24T16:26:15.320Z,6.63
2023-03-24T16:28:33.938Z,10.20
2023-03-24T16:30:51.324Z,5.88
2023-03-24T16:33:08.441Z,5.35
2023-03-24T16:35:25.748Z,2.95
2023-03-24T16:37:43.116Z,5.38
2023-03-24T16:40:01.799Z,8.57
2023-03-24T16:42:20.597Z,5.88
2023-03-24T16:44:38.564Z,3.42
2023-03-24T16:46:56.577Z,6.05
2023-03-24T16:49:13.865Z,11.45
2023-03-24T16:51:31.942Z,6.97
2023-03-24T16:53:49.289Z,6.82
2023-03-24T16:56:06.636Z,7.85
2023-03-24T16:58:24.101Z,6.50
2023-03-24T17:00:41.260Z,7.47
2023-03-24T17:02:58.638Z,5.13
2023-03-24T17:05:15.600Z,4.35
2023-03-24T17:07:32.793Z,5.47
2023-03-24T17:09:49.733Z,6.40
2023-03-24T17:12:06.774Z,11.57
2023-03-24T17:14:24.699Z,5.43
2023-03-24T17:16:41.702Z,7.18
2023-03-24T17:18:58.799Z,5.30
2023-03-24T17:21:15.734Z,5.28
2023-03-24T17:23:33.998Z,4.60
2023-03-24T17:25:50.987Z,5.28
2023-03-24T17:28:08.320Z,5.38
2023-03-24T17:30:25.246Z,7.38
2023-03-24T17:32:42.608Z,7.03
2023-03-24T17:34:59.577Z,7.68
2023-03-24T17:37:16.983Z,6.57
2023-03-24T17:39:33.974Z,7.05
2023-03-24T17:41:50.856Z,4.97
2023-03-24T17:44:08.211Z,7.53
2023-03-24T17:46:25.546Z,5.35
2023-03-24T17:48:46.681Z,5.40
2023-03-24T17:51:05.196Z,9.18
2023-03-24T17:53:22.184Z,8.20
2023-03-24T17:55:39.072Z,5.78
2023-03-24T17:57:56.033Z,5.63
2023-03-24T18:00:13.331Z,5.55
2023-03-24T18:02:31.598Z,8.77
2023-03-24T18:04:49.632Z,6.13
2023-03-24T18:07:07.568Z,5.10
2023-03-24T18:09:24.409Z,5.10
2023-03-24T18:11:41.737Z,5.65
2023-03-24T18:13:58.655Z,6.43
2023-03-24T18:16:21.448Z,5.85
2023-03-24T18:18:39.057Z,4.15
2023-03-24T18:20:56.447Z,8.35
2023-03-24T18:23:13.819Z,7.18
2023-03-24T18:25:30.706Z,6.05
2023-03-24T18:27:47.800Z,12.98
2023-03-24T18:30:04.724Z,7.03
2023-03-24T18:32:22.046Z,5.45
2023-03-24T18:34:39.051Z,4.10
2023-03-24T18:36:56.115Z,5.40
2023-03-24T18:39:13.197Z,4.47
2023-03-24T18:41:30.274Z,4.15
2023-03-24T18:43:47.566Z,3.08
2023-03-24T18:46:04.869Z,3.72
2023-03-24T18:48:21.832Z,2.38
2023-03-24T18:50:38.796Z,1.75
2023-03-24T18:52:55.784Z,2.72
2023-03-24T18:55:12.756Z,3.28
2023-03-24T18:57:29.752Z,3.63
2023-03-24T18:59:46.672Z,1.13
2023-03-24T19:02:03.578Z,2.58
2023-03-24T19:04:20.545Z,2.28
2023-03-24T19:06:37.808Z,3.80
2023-03-24T19:08:54.761Z,2.65
2023-03-24T19:11:11.809Z,3.63
2023-03-24T19:13:28.720Z,1.98
2023-03-24T19:15:46.399Z,1.95
2023-03-24T19:18:03.972Z,2.63
2023-03-24T19:20:21.341Z,4.43
2023-03-24T19:22:39.361Z,3.78
2023-03-24T19:24:56.298Z,3.95
2023-03-24T19:27:13.419Z,2.72
2023-03-24T19:29:30.511Z,2.78
2023-03-24T19:31:47.577Z,3.70
2023-03-24T19:34:04.499Z,4.28
2023-03-24T19:36:21.496Z,3.58
2023-03-24T19:38:38.824Z,2.83
2023-03-24T19:40:55.818Z,3.25
2023-03-24T19:43:12.874Z,3.88
2023-03-24T19:45:29.926Z,2.50
2023-03-24T19:47:46.963Z,2.95
2023-03-24T19:50:04.307Z,2.72
2023-03-24T19:52:21.583Z,4.38
2023-03-24T19:54:39.569Z,13.77
2023-03-24T19:56:56.685Z,17.92
2023-03-24T19:59:13.990Z,22.45
2023-03-24T20:01:30.934Z,26.13
2023-03-24T20:03:48.176Z,20.98
2023-03-24T20:06:05.205Z,25.40
2023-03-24T20:08:22.214Z,19.00
2023-03-24T20:10:39.542Z,16.40
2023-03-24T20:12:56.857Z,15.73
2023-03-24T20:15:14.185Z,13.18
2023-03-24T20:17:31.081Z,9.98
2023-03-24T20:19:48.876Z,10.23
2023-03-24T20:22:05.929Z,5.18
2023-03-24T20:24:22.838Z,3.70
2023-03-24T20:26:40.182Z,3.55
2023-03-24T20:28:57.528Z,6.10
2023-03-24T20:31:14.544Z,4.35
2023-03-24T20:33:31.905Z,3.55
2023-03-24T20:35:49.210Z,3.47
2023-03-24T20:38:06.397Z,4.78
2023-03-24T20:40:23.729Z,4.70
2023-03-24T20:42:40.830Z,4.10
2023-03-24T20:44:57.758Z,5.88
2023-03-24T20:47:15.724Z,5.20
2023-03-24T20:49:32.644Z,2.30
2023-03-24T20:51:49.595Z,5.15
2023-03-24T20:54:06.946Z,1.63
2023-03-24T20:56:23.916Z,3.38
2023-03-24T20:58:40.991Z,5.10
2023-03-24T21:00:58.335Z,2.38
2023-03-24T21:03:15.359Z,1.52
2023-03-24T21:05:32.310Z,3.40
2023-03-24T21:07:49.366Z,2.10
2023-03-24T21:10:06.408Z,1.95
2023-03-24T21:12:23.387Z,0.93
2023-03-24T21:14:40.663Z,2.13
2023-03-24T21:16:57.661Z,2.53
2023-03-24T21:19:14.934Z,1.70
2023-03-24T21:21:31.815Z,1.70
2023-03-24T21:23:48.826Z,4.03
2023-03-24T21:26:06.082Z,0.95
2023-03-24T21:28:23.277Z,1.48
2023-03-24T21:30:40.273Z,1.10
2023-03-24T21:32:57.280Z,1.33
2023-03-24T21:35:14.592Z,0.82
2023-03-24T21:37:31.820Z,2.22
2023-03-24T21:39:48.754Z,0.47
2023-03-24T21:42:05.772Z,2.10
2023-03-24T21:44:23.002Z,2.20
2023-03-24T21:46:41.342Z,2.03
2023-03-24T21:48:58.503Z,0.82
2023-03-24T21:51:15.537Z,1.73
2023-03-24T21:53:32.917Z,0.50
2023-03-24T21:55:50.485Z,3.15
2023-03-24T21:58:08.014Z,3.22
2023-03-24T22:00:25.349Z,3.40
2023-03-24T22:02:43.316Z,1.15
2023-03-24T22:05:01.230Z,1.83
2023-03-24T22:07:19.301Z,1.30
2023-03-24T22:09:36.576Z,1.38
2023-03-24T22:11:53.860Z,2.35
2023-03-24T22:14:10.777Z,2.15
2023-03-24T22:16:27.877Z,2.42
2023-03-24T22:18:44.911Z,3.22
2023-03-24T22:21:01.901Z,1.20
2023-03-24T22:23:18.980Z,2.45
2023-03-24T22:25:36.392Z,1.70
2023-03-24T22:27:53.343Z,1.13
2023-03-24T22:30:10.377Z,0.20
2023-03-24T22:32:27.514Z,0.35
2023-03-24T22:34:44.912Z,0.73
2023-03-24T22:37:02.941Z,0.57
2023-03-24T22:39:20.312Z,1.55
2023-03-24T22:41:37.142Z,1.15
2023-03-24T22:43:54.208Z,0.20
2023-03-24T22:46:11.330Z,1.00
2023-03-24T22:48:28.458Z,0.40
2023-03-24T22:50:45.786Z,0.30
2023-03-24T22:53:02.643Z,0.80
2023-03-24T22:55:19.713Z,0.80
2023-03-24T22:57:36.671Z,0.52
2023-03-24T22:59:53.564Z,1.13
2023-03-24T23:02:11.756Z,0.77
2023-03-24T23:04:28.711Z,0.95
2023-03-24T23:06:45.665Z,2.65
2023-03-24T23:09:02.606Z,2.45
2023-03-24T23:11:19.512Z,0.32
2023-03-24T23:13:36.842Z,1.65
2023-03-24T23:15:53.925Z,1.65
2023-03-24T23:18:11.391Z,0.65
2023-03-24T23:20:28.682Z,0.95
2023-03-24T23:22:45.580Z,0.88
2023-03-24T23:25:03.294Z,0.73
2023-03-24T23:27:21.619Z,6.90
2023-03-24T23:29:38.713Z,1.27
2023-03-24T23:31:57.035Z,0.50
2023-03-24T23:34:14.453Z,1.88
2023-03-24T23:36:31.551Z,1.42
2023-03-24T23:38:48.511Z,2.22
2023-03-24T23:41:05.476Z,0.80
2023-03-24T23:43:22.862Z,2.03
2023-03-24T23:45:40.147Z,1.35
2023-03-24T23:47:57.440Z,3.28
2023-03-24T23:50:14.506Z,1.95
2023-03-24T23:52:31.887Z,1.42
2023-03-24T23:54:48.822Z,3.10
2023-03-24T23:57:06.215Z,3.72
2023-03-24T23:59:23.357Z,1.25
